createdAt,value
2023-04-09T00:01:32.907Z,99208.56
2023-04-09T00:04:03.965Z,99206.84
2023-04-09T00:06:32.141Z,99206.66
2023-04-09T00:09:02.240Z,99207.31
2023-04-09T00:11:30.291Z,99199.28
2023-04-09T00:13:58.508Z,99197.28
2023-04-09T00:16:26.651Z,99202.91
2023-04-09T00:18:56.305Z,99197.44
2023-04-09T00:21:24.317Z,99200.69
2023-04-09T00:23:52.386Z,99205.22
2023-04-09T00:26:21.410Z,99199.00
2023-04-09T00:28:49.974Z,99195.75
2023-04-09T00:31:20.130Z,99201.03
2023-04-09T00:33:48.884Z,99193.44
2023-04-09T00:36:18.388Z,99193.81
2023-04-09T00:38:47.289Z,99196.59
2023-04-09T00:41:15.268Z,99186.59
2023-04-09T00:43:43.270Z,99188.47
2023-04-09T00:46:11.356Z,99182.63
2023-04-09T00:48:39.922Z,99189.03
2023-04-09T00:51:09.011Z,99184.16
2023-04-09T00:53:38.354Z,99187.19
2023-04-09T00:56:07.032Z,99187.44
2023-04-09T00:58:35.104Z,99191.50
2023-04-09T01:01:05.592Z,99185.56
2023-04-09T01:03:36.798Z,99184.81
2023-04-09T01:06:07.730Z,99194.25
2023-04-09T01:08:42.684Z,99192.97
2023-04-09T01:11:16.449Z,99195.00
2023-04-09T01:13:49.248Z,99187.66
2023-04-09T01:16:17.945Z,99190.19
2023-04-09T01:18:51.507Z,99195.72
2023-04-09T01:21:21.539Z,99181.38
2023-04-09T01:23:57.459Z,99185.22
2023-04-09T01:26:35.993Z,99191.97
2023-04-09T01:29:06.920Z,99191.03
2023-04-09T01:31:36.674Z,99194.47
2023-04-09T01:34:06.030Z,99188.25
2023-04-09T01:36:35.028Z,99189.13
2023-04-09T01:39:03.504Z,99193.22
2023-04-09T01:41:33.443Z,99185.56
2023-04-09T01:44:02.640Z,99187.69
2023-04-09T01:46:32.856Z,99189.63
2023-04-09T01:49:01.380Z,99188.00
2023-04-09T01:51:29.957Z,99186.75
2023-04-09T01:53:57.984Z,99191.72
2023-04-09T01:56:26.288Z,99191.34
2023-04-09T01:58:54.542Z,99190.69
2023-04-09T02:01:28.381Z,99190.75
2023-04-09T02:04:02.183Z,99198.41
2023-04-09T02:06:35.726Z,99194.59
2023-04-09T02:09:05.732Z,99195.41
2023-04-09T02:11:34.659Z,99188.81
2023-04-09T02:14:03.686Z,99189.06
2023-04-09T02:16:32.824Z,99190.69
2023-04-09T02:19:02.157Z,99186.28
2023-04-09T02:21:31.709Z,99185.94
2023-04-09T02:24:00.040Z,99182.47
2023-04-09T02:26:28.125Z,99179.28
2023-04-09T02:28:59.889Z,99185.16
2023-04-09T02:31:27.929Z,99181.94
2023-04-09T02:33:56.191Z,99181.16
2023-04-09T02:36:26.420Z,99176.56
2023-04-09T02:38:54.515Z,99186.22
2023-04-09T02:41:22.579Z,99188.16
2023-04-09T02:43:50.563Z,99184.81
2023-04-09T02:46:18.721Z,99184.00
2023-04-09T02:48:46.924Z,99178.34
2023-04-09T02:51:15.044Z,99181.97
2023-04-09T02:53:45.548Z,99178.13
2023-04-09T02:56:13.600Z,99172.59
2023-04-09T02:58:41.769Z,99180.50
2023-04-09T03:01:09.901Z,99171.97
2023-04-09T03:03:40.064Z,99180.19
2023-04-09T03:06:08.263Z,99172.38
2023-04-09T03:08:36.334Z,99175.19
2023-04-09T03:11:05.790Z,99169.69
2023-04-09T03:13:33.911Z,99178.03
2023-04-09T03:16:02.126Z,99143.28
2023-04-09T03:18:30.432Z,99168.03
2023-04-09T03:20:58.429Z,99171.19
2023-04-09T03:23:34.787Z,99174.81
2023-04-09T03:26:03.590Z,99170.88
2023-04-09T03:28:37.188Z,99163.50
2023-04-09T03:31:05.401Z,99163.25
2023-04-09T03:33:37.324Z,99169.03
2023-04-09T03:36:05.794Z,99166.84
2023-04-09T03:39:12.053Z,99160.97
2023-04-09T03:41:43.765Z,99168.25
2023-04-09T03:44:17.096Z,99163.88
2023-04-09T03:47:03.228Z,99166.50
2023-04-09T03:49:31.254Z,99163.97
2023-04-09T03:52:08.189Z,99160.41
2023-04-09T03:54:39.749Z,99160.97
2023-04-09T03:57:14.100Z,99157.78
2023-04-09T03:59:46.246Z,99164.22
2023-04-09T04:02:17.702Z,99170.59
2023-04-09T04:04:50.444Z,99165.81
2023-04-09T04:07:18.733Z,99172.91
2023-04-09T04:09:51.584Z,99135.75
2023-04-09T04:12:20.561Z,99161.78
2023-04-09T04:15:09.948Z,99164.69
2023-04-09T04:17:51.866Z,99170.72
2023-04-09T04:20:41.147Z,99176.13
2023-04-09T04:23:13.422Z,99177.16
2023-04-09T04:25:54.259Z,99180.44
2023-04-09T04:28:29.241Z,99185.81
2023-04-09T04:30:59.309Z,99186.88
2023-04-09T04:33:29.871Z,99181.41
2023-04-09T04:36:06.312Z,99177.78
2023-04-09T04:38:38.903Z,99182.31
2023-04-09T04:41:12.952Z,99178.91
2023-04-09T04:43:47.573Z,99184.78
2023-04-09T04:46:22.845Z,99190.78
2023-04-09T04:48:51.229Z,99188.78
2023-04-09T04:51:19.546Z,99179.06
2023-04-09T04:53:59.555Z,99186.44
2023-04-09T04:56:28.274Z,99188.53
2023-04-09T04:59:03.577Z,99189.72
2023-04-09T05:01:44.426Z,99187.78
2023-04-09T05:04:14.547Z,99186.03
2023-04-09T05:06:42.692Z,99187.66
2023-04-09T05:09:14.960Z,99187.50
2023-04-09T05:11:55.018Z,99186.22
2023-04-09T05:14:24.186Z,99188.41
2023-04-09T05:16:53.832Z,99183.53
2023-04-09T05:19:26.282Z,99188.06
2023-04-09T05:22:00.259Z,99191.38
2023-04-09T05:24:28.372Z,99189.91
2023-04-09T05:26:56.380Z,99197.78
2023-04-09T05:29:24.900Z,99190.16
2023-04-09T05:31:54.278Z,99193.16
2023-04-09T05:34:28.537Z,99197.41
2023-04-09T05:36:58.004Z,99189.91
2023-04-09T05:39:27.030Z,99194.06
2023-04-09T05:41:56.266Z,99198.56
2023-04-09T05:44:37.536Z,99193.16
2023-04-09T05:47:14.842Z,99187.41
2023-04-09T05:49:49.077Z,99191.22
2023-04-09T05:52:19.756Z,99192.72
2023-04-09T05:54:47.958Z,99191.66
2023-04-09T05:57:20.846Z,99195.19
2023-04-09T05:59:56.113Z,99193.56
2023-04-09T06:02:26.538Z,99205.00
2023-04-09T06:04:55.628Z,99200.97
2023-04-09T06:07:23.745Z,99206.75
2023-04-09T06:09:51.817Z,99205.03
2023-04-09T06:12:22.213Z,99200.94
2023-04-09T06:14:50.281Z,99197.16
2023-04-09T06:17:18.347Z,99198.34
2023-04-09T06:19:47.743Z,99196.38
2023-04-09T06:22:15.797Z,99192.41
2023-04-09T06:24:43.862Z,99193.69
2023-04-09T06:27:12.075Z,99195.09
2023-04-09T06:29:40.353Z,99196.38
2023-04-09T06:32:08.391Z,99194.97
2023-04-09T06:34:36.433Z,99199.66
2023-04-09T06:37:07.488Z,99194.75
2023-04-09T06:39:35.475Z,99196.09
2023-04-09T06:42:05.901Z,99202.59
2023-04-09T06:44:40.762Z,99211.97
2023-04-09T06:47:09.344Z,99210.50
2023-04-09T06:49:39.768Z,99210.88
2023-04-09T06:52:09.157Z,99223.75
2023-04-09T06:54:37.210Z,99200.38
2023-04-09T06:57:05.311Z,99224.63
2023-04-09T06:59:33.781Z,99222.22
2023-04-09T07:02:01.993Z,99226.63
2023-04-09T07:04:30.218Z,99223.97
2023-04-09T07:06:59.270Z,99229.09
2023-04-09T07:09:28.690Z,99223.75
2023-04-09T07:11:59.036Z,99219.03
2023-04-09T07:14:27.231Z,99220.06
2023-04-09T07:16:57.842Z,99221.09
2023-04-09T07:19:25.974Z,99220.25
2023-04-09T07:21:54.072Z,99215.19
2023-04-09T07:24:24.359Z,99229.28
2023-04-09T07:26:53.910Z,99224.59
2023-04-09T07:29:22.364Z,99218.41
2023-04-09T07:31:50.559Z,99222.00
2023-04-09T07:34:18.709Z,99221.34
2023-04-09T07:36:46.778Z,99225.03
2023-04-09T07:39:14.872Z,99219.84
2023-04-09T07:41:43.033Z,99219.28
2023-04-09T07:44:13.658Z,99223.09
2023-04-09T07:46:44.720Z,99222.88
2023-04-09T07:49:12.780Z,99223.06
2023-04-09T07:51:41.084Z,99230.00
2023-04-09T07:54:09.196Z,99225.75
2023-04-09T07:56:37.269Z,99227.25
2023-04-09T07:59:05.678Z,99223.28
2023-04-09T08:01:35.145Z,99229.31
2023-04-09T08:04:03.669Z,99228.91
2023-04-09T08:06:31.930Z,99234.09
2023-04-09T08:08:59.999Z,99248.47
2023-04-09T08:11:28.170Z,99251.56
2023-04-09T08:13:57.152Z,99250.25
2023-04-09T08:16:25.289Z,99259.25
2023-04-09T08:18:55.191Z,99260.47
2023-04-09T08:21:23.421Z,99256.53
2023-04-09T08:23:51.739Z,99254.06
2023-04-09T08:26:22.825Z,99262.91
2023-04-09T08:28:52.267Z,99264.44
2023-04-09T08:31:20.655Z,99258.84
2023-04-09T08:33:48.798Z,99264.88
2023-04-09T08:36:20.500Z,99259.03
2023-04-09T08:38:49.261Z,99263.19
2023-04-09T08:41:20.858Z,99261.97
2023-04-09T08:43:57.759Z,99260.31
2023-04-09T08:46:27.250Z,99259.47
2023-04-09T08:48:55.892Z,99253.63
2023-04-09T08:51:25.649Z,99259.81
2023-04-09T08:53:56.502Z,99258.78
2023-04-09T08:56:24.794Z,99259.88
2023-04-09T08:58:53.548Z,99255.25
2023-04-09T09:01:22.966Z,99263.50
2023-04-09T09:03:55.895Z,99259.22
2023-04-09T09:06:27.055Z,99268.53
2023-04-09T09:09:04.586Z,99262.34
2023-04-09T09:11:32.650Z,99261.44
2023-04-09T09:14:04.642Z,99270.41
2023-04-09T09:16:35.840Z,99263.84
2023-04-09T09:19:04.283Z,99267.94
2023-04-09T09:21:34.779Z,99268.81
2023-04-09T09:24:03.417Z,99255.66
2023-04-09T09:26:32.011Z,99262.56
2023-04-09T09:29:01.506Z,99263.16
2023-04-09T09:31:32.152Z,99264.72
2023-04-09T09:34:09.754Z,99256.66
2023-04-09T09:36:39.141Z,99262.81
2023-04-09T09:39:10.116Z,99254.19
2023-04-09T09:41:38.711Z,99261.19
2023-04-09T09:44:07.988Z,99252.00
2023-04-09T09:46:36.894Z,99254.09
2023-04-09T09:49:08.054Z,99251.59
2023-04-09T09:51:37.661Z,99254.59
2023-04-09T09:54:08.232Z,99251.44
2023-04-09T09:56:37.069Z,99255.16
2023-04-09T09:59:08.576Z,99257.06
2023-04-09T10:01:37.288Z,99250.44
2023-04-09T10:04:07.088Z,99248.22
2023-04-09T10:06:38.702Z,99254.16
2023-04-09T10:09:10.893Z,99250.25
2023-04-09T10:11:39.446Z,99259.03
2023-04-09T10:14:07.567Z,99256.22
2023-04-09T10:16:36.109Z,99258.97
2023-04-09T10:19:04.263Z,99254.47
2023-04-09T10:21:39.871Z,99251.03
2023-04-09T10:24:10.856Z,99253.75
2023-04-09T10:26:41.690Z,99243.34
2023-04-09T10:29:13.744Z,99244.38
2023-04-09T10:32:02.577Z,99245.19
2023-04-09T10:34:30.672Z,99238.94
2023-04-09T10:36:59.755Z,99233.00
2023-04-09T10:39:33.416Z,99225.66
2023-04-09T10:42:02.677Z,99224.47
2023-04-09T10:44:32.495Z,99224.00
2023-04-09T10:47:04.254Z,99229.81
2023-04-09T10:49:37.143Z,99232.25
2023-04-09T10:52:06.289Z,99208.91
2023-04-09T10:54:43.866Z,99222.63
2023-04-09T10:57:18.973Z,99220.78
2023-04-09T10:59:47.760Z,99228.75
2023-04-09T11:02:33.057Z,99218.41
2023-04-09T11:05:08.303Z,99215.38
2023-04-09T11:07:41.706Z,99213.94
2023-04-09T11:10:11.531Z,99228.09
2023-04-09T11:12:39.531Z,99215.25
2023-04-09T11:15:16.384Z,99212.16
2023-04-09T11:17:44.801Z,99224.44
2023-04-09T11:20:15.705Z,99210.19
2023-04-09T11:22:44.114Z,99211.34
2023-04-09T11:25:18.562Z,99212.34
2023-04-09T11:27:47.160Z,99207.97
2023-04-09T11:30:15.383Z,99202.91
2023-04-09T11:32:43.664Z,99203.91
2023-04-09T11:35:13.733Z,99205.56
2023-04-09T11:37:42.197Z,99212.94
2023-04-09T11:40:17.787Z,99206.41
2023-04-09T11:42:46.601Z,99210.97
2023-04-09T11:45:16.191Z,99211.94
2023-04-09T11:47:47.251Z,99206.94
2023-04-09T11:50:16.058Z,99210.66
2023-04-09T11:52:44.612Z,99211.44
2023-04-09T11:55:12.806Z,99210.16
2023-04-09T11:57:43.848Z,99209.63
2023-04-09T12:00:16.696Z,99207.44
2023-04-09T12:02:46.393Z,99211.94
2023-04-09T12:05:22.639Z,99211.78
2023-04-09T12:07:56.203Z,99215.22
2023-04-09T12:10:28.120Z,99205.78
2023-04-09T12:13:02.285Z,99202.09
2023-04-09T12:15:32.856Z,99206.19
2023-04-09T12:18:01.267Z,99202.69
2023-04-09T12:20:30.523Z,99207.75
2023-04-09T12:23:00.109Z,99201.06
2023-04-09T12:25:28.657Z,99196.91
2023-04-09T12:27:58.725Z,99200.81
2023-04-09T12:30:27.289Z,99196.59
2023-04-09T12:32:55.865Z,99200.88
2023-04-09T12:35:24.131Z,99193.31
2023-04-09T12:37:52.573Z,99185.88
2023-04-09T12:40:23.803Z,99185.56
2023-04-09T12:42:52.090Z,99174.72
2023-04-09T12:45:22.651Z,99180.53
2023-04-09T12:47:51.158Z,99188.47
2023-04-09T12:50:19.328Z,99195.00
2023-04-09T12:52:47.406Z,99187.97
2023-04-09T12:55:16.062Z,99176.44
2023-04-09T12:57:44.876Z,99175.59
2023-04-09T13:00:13.704Z,99175.97
2023-04-09T13:02:43.241Z,99179.53
2023-04-09T13:05:11.445Z,99171.94
2023-04-09T13:07:41.493Z,99159.09
2023-04-09T13:10:11.151Z,99168.28
2023-04-09T13:12:39.238Z,99149.50
2023-04-09T13:15:07.878Z,99156.72
2023-04-09T13:17:35.979Z,99162.50
2023-04-09T13:20:06.062Z,99164.47
2023-04-09T13:22:34.118Z,99154.00
2023-04-09T13:25:02.240Z,99163.44
2023-04-09T13:27:30.369Z,99156.47
2023-04-09T13:29:58.392Z,99157.00
2023-04-09T13:32:26.720Z,99152.28
2023-04-09T13:34:55.764Z,99150.28
2023-04-09T13:37:25.952Z,99150.13
2023-04-09T13:39:54.010Z,99131.94
2023-04-09T13:42:22.137Z,99134.19
2023-04-09T13:44:50.180Z,99133.25
2023-04-09T13:47:18.365Z,99127.50
2023-04-09T13:49:51.452Z,99138.72
2023-04-09T13:52:19.523Z,99128.31
2023-04-09T13:54:49.405Z,99123.69
2023-04-09T13:57:17.767Z,99118.50
2023-04-09T13:59:48.100Z,99124.03
2023-04-09T14:02:18.083Z,99118.91
2023-04-09T14:04:46.503Z,99116.38
2023-04-09T14:07:14.617Z,99117.22
2023-04-09T14:09:45.093Z,99063.16
2023-04-09T14:12:14.477Z,99096.69
2023-04-09T14:14:42.531Z,99104.03
2023-04-09T14:17:10.582Z,99101.13
2023-04-09T14:19:39.247Z,99099.50
2023-04-09T14:22:08.824Z,99088.59
2023-04-09T14:24:39.923Z,99103.41
2023-04-09T14:27:08.641Z,99094.63
2023-04-09T14:29:40.127Z,99091.00
2023-04-09T14:32:08.213Z,99094.22
2023-04-09T14:34:36.663Z,99089.09
2023-04-09T14:37:04.730Z,99086.59
2023-04-09T14:39:32.804Z,99078.22
2023-04-09T14:42:01.036Z,99085.91
2023-04-09T14:44:29.234Z,99080.19
2023-04-09T14:47:00.016Z,99080.03
2023-04-09T14:49:28.225Z,99080.41
2023-04-09T14:51:59.441Z,99079.53
2023-04-09T14:54:28.918Z,99073.78
2023-04-09T14:56:58.228Z,99074.69
2023-04-09T14:59:26.976Z,99059.16
2023-04-09T15:01:55.107Z,99082.50
2023-04-09T15:04:24.677Z,99072.91
2023-04-09T15:06:52.806Z,99072.66
2023-04-09T15:09:20.917Z,99075.06
2023-04-09T15:11:48.929Z,99063.41
2023-04-09T15:14:17.027Z,99050.50
2023-04-09T15:16:45.145Z,99070.66
2023-04-09T15:19:15.676Z,99069.56
2023-04-09T15:21:45.186Z,99071.91
2023-04-09T15:24:13.249Z,99068.84
2023-04-09T15:26:41.276Z,99052.59
2023-04-09T15:29:09.400Z,99072.94
2023-04-09T15:31:41.435Z,99071.63
2023-04-09T15:34:09.763Z,99069.09
2023-04-09T15:36:37.805Z,99068.94
2023-04-09T15:39:07.294Z,99072.22
2023-04-09T15:41:35.304Z,99075.88
2023-04-09T15:44:03.316Z,99066.56
2023-04-09T15:46:33.401Z,99072.34
2023-04-09T15:49:01.630Z,99071.47
2023-04-09T15:51:29.590Z,99069.63
2023-04-09T15:53:57.590Z,99056.34
2023-04-09T15:56:27.012Z,99056.63
2023-04-09T15:58:55.295Z,99052.75
2023-04-09T16:01:23.593Z,99054.56
2023-04-09T16:03:52.257Z,99048.94
2023-04-09T16:06:21.156Z,99054.00
2023-04-09T16:08:49.310Z,99064.66
2023-04-09T16:11:17.664Z,99064.97
2023-04-09T16:13:49.323Z,99058.72
2023-04-09T16:16:17.618Z,99054.97
2023-04-09T16:18:45.690Z,99052.50
2023-04-09T16:21:13.756Z,99055.72
2023-04-09T16:23:41.982Z,99057.50
2023-04-09T16:26:11.096Z,99061.69
2023-04-09T16:28:41.265Z,99057.38
2023-04-09T16:31:10.598Z,99060.09
2023-04-09T16:33:38.689Z,99055.41
2023-04-09T16:36:07.152Z,99056.13
2023-04-09T16:38:35.257Z,99063.00
2023-04-09T16:41:03.326Z,99050.91
2023-04-09T16:43:31.473Z,99061.09
2023-04-09T16:45:59.617Z,99063.97
2023-04-09T16:48:29.080Z,99063.59
2023-04-09T16:50:57.140Z,99054.66
2023-04-09T16:53:25.180Z,99066.59
2023-04-09T16:55:53.420Z,99061.16
2023-04-09T16:58:23.749Z,99059.69
2023-04-09T17:00:52.210Z,99063.22
2023-04-09T17:03:20.443Z,99066.06
2023-04-09T17:05:49.849Z,99062.41
2023-04-09T17:08:18.225Z,99064.28
2023-04-09T17:10:46.255Z,99070.72
2023-04-09T17:13:14.492Z,99072.03
2023-04-09T17:15:43.397Z,99062.88
2023-04-09T17:18:12.130Z,99060.94
2023-04-09T17:20:40.102Z,99068.34
2023-04-09T17:23:09.607Z,99056.44
2023-04-09T17:25:37.660Z,99067.16
2023-04-09T17:28:06.012Z,99060.44
2023-04-09T17:30:34.781Z,99063.41
2023-04-09T17:33:03.020Z,99064.72
2023-04-09T17:35:34.066Z,99063.88
2023-04-09T17:38:02.366Z,99064.09
2023-04-09T17:40:31.905Z,99066.66
2023-04-09T17:43:00.318Z,99070.34
2023-04-09T17:45:30.963Z,99073.16
2023-04-09T17:47:59.090Z,99075.53
2023-04-09T17:50:27.193Z,99072.94
2023-04-09T17:52:55.240Z,99078.44
2023-04-09T17:55:23.364Z,99083.50
2023-04-09T17:57:53.078Z,99087.66
2023-04-09T18:00:21.126Z,99081.13
2023-04-09T18:02:52.481Z,99085.16
2023-04-09T18:05:21.067Z,99077.81
2023-04-09T18:07:49.249Z,99089.78
2023-04-09T18:10:17.459Z,99085.63
2023-04-09T18:12:47.821Z,99102.53
2023-04-09T18:15:18.687Z,99100.88
2023-04-09T18:17:47.254Z,99101.69
2023-04-09T18:20:16.094Z,99105.84
2023-04-09T18:22:44.257Z,99110.50
2023-04-09T18:25:12.228Z,99118.78
2023-04-09T18:27:40.311Z,99116.06
2023-04-09T18:30:12.982Z,99125.56
2023-04-09T18:32:49.116Z,99126.13
2023-04-09T18:35:17.371Z,99123.78
2023-04-09T18:37:48.024Z,99123.22
2023-04-09T18:40:20.227Z,99118.56
2023-04-09T18:42:52.578Z,99121.53
2023-04-09T18:45:20.724Z,99125.66
2023-04-09T18:47:50.490Z,99122.25
2023-04-09T18:50:20.468Z,99130.94
2023-04-09T18:52:50.822Z,99131.16
2023-04-09T18:55:19.212Z,99126.22
2023-04-09T18:57:47.241Z,99129.44
2023-04-09T19:00:15.668Z,99097.22
2023-04-09T19:02:46.206Z,99135.28
2023-04-09T19:05:18.683Z,99141.03
2023-04-09T19:07:46.735Z,99147.47
2023-04-09T19:10:14.888Z,99151.53
2023-04-09T19:12:48.341Z,99149.06
2023-04-09T19:15:16.795Z,99151.63
2023-04-09T19:17:45.000Z,99153.59
2023-04-09T19:20:13.591Z,99151.84
2023-04-09T19:22:46.733Z,99149.75
2023-04-09T19:25:15.147Z,99151.72
2023-04-09T19:27:43.289Z,99165.88
2023-04-09T19:30:11.839Z,99159.25
2023-04-09T19:32:41.228Z,99159.47
2023-04-09T19:35:10.428Z,99167.38
2023-04-09T19:37:47.215Z,99169.66
2023-04-09T19:40:16.936Z,99166.31
2023-04-09T19:42:47.032Z,99172.19
2023-04-09T19:45:15.281Z,99177.75
2023-04-09T19:47:43.380Z,99172.34
2023-04-09T19:50:11.851Z,99176.72
2023-04-09T19:52:41.392Z,99170.53
2023-04-09T19:55:11.433Z,99167.63
2023-04-09T19:57:40.651Z,99164.44
2023-04-09T20:00:09.558Z,99165.09
2023-04-09T20:02:41.512Z,99163.44
2023-04-09T20:05:10.693Z,99168.00
2023-04-09T20:07:41.086Z,99160.13
2023-04-09T20:10:11.339Z,99169.25
2023-04-09T20:12:39.363Z,99170.09
2023-04-09T20:15:09.926Z,99165.31
2023-04-09T20:17:38.446Z,99173.38
2023-04-09T20:20:07.000Z,99177.16
2023-04-09T20:22:35.081Z,99168.63
2023-04-09T20:25:06.934Z,99162.44
2023-04-09T20:27:37.454Z,99151.41
2023-04-09T20:30:06.210Z,99161.97
2023-04-09T20:32:35.356Z,99175.09
2023-04-09T20:35:03.562Z,99174.66
2023-04-09T20:37:34.146Z,99177.59
2023-04-09T20:40:02.288Z,99184.63
2023-04-09T20:42:30.711Z,99182.13
2023-04-09T20:45:01.654Z,99181.50
2023-04-09T20:47:30.089Z,99181.13
2023-04-09T20:49:59.921Z,99171.97
2023-04-09T20:52:28.825Z,99165.09
2023-04-09T20:54:57.852Z,99164.28
2023-04-09T20:57:26.143Z,99160.75
2023-04-09T20:59:54.440Z,99167.38
2023-04-09T21:02:23.998Z,99170.50
2023-04-09T21:04:52.203Z,99165.88
2023-04-09T21:07:20.300Z,99172.50
2023-04-09T21:09:48.313Z,99134.28
2023-04-09T21:12:16.418Z,99168.00
2023-04-09T21:14:44.487Z,99162.13
2023-04-09T21:17:12.525Z,99154.66
2023-04-09T21:19:42.367Z,99149.75
2023-04-09T21:22:13.396Z,99146.78
2023-04-09T21:24:41.401Z,99139.06
2023-04-09T21:27:09.379Z,99141.78
2023-04-09T21:29:37.373Z,99150.00
2023-04-09T21:32:05.488Z,99151.63
2023-04-09T21:34:33.538Z,99150.50
2023-04-09T21:37:04.340Z,99150.22
2023-04-09T21:39:32.392Z,99153.06
2023-04-09T21:42:00.407Z,99143.81
2023-04-09T21:44:28.420Z,99146.59
2023-04-09T21:46:56.472Z,99144.34
2023-04-09T21:49:24.586Z,99141.56
2023-04-09T21:51:52.847Z,99144.22
2023-04-09T21:54:22.299Z,99144.91
2023-04-09T21:56:50.478Z,99145.72
2023-04-09T22:02:38.480Z,99155.09
2023-04-09T22:05:06.994Z,99150.16
2023-04-09T22:07:37.201Z,99151.88
2023-04-09T22:10:05.721Z,99152.25
2023-04-09T22:12:36.088Z,99149.47
2023-04-09T22:15:04.544Z,99148.44
2023-04-09T22:17:32.588Z,99152.13
2023-04-09T22:20:02.628Z,99153.84
2023-04-09T22:22:30.894Z,99149.25
2023-04-09T22:24:58.961Z,99149.84
2023-04-09T22:27:26.925Z,99148.63
2023-04-09T22:29:55.001Z,99144.63
2023-04-09T22:32:23.014Z,99142.03
2023-04-09T22:34:50.982Z,99135.34
2023-04-09T22:37:20.538Z,99138.34
2023-04-09T22:39:48.711Z,99129.91
2023-04-09T22:42:16.956Z,99127.88
2023-04-09T22:44:45.006Z,99135.06
2023-04-09T22:47:13.161Z,99137.75
2023-04-09T22:49:41.164Z,99134.34
2023-04-09T22:52:09.560Z,99131.00
2023-04-09T22:54:39.023Z,99131.91
2023-04-09T22:57:07.045Z,99134.41
2023-04-09T22:59:40.352Z,99136.25
2023-04-09T23:02:09.313Z,99135.16
2023-04-09T23:04:37.554Z,99132.53
2023-04-09T23:07:05.767Z,99129.78
2023-04-09T23:09:33.835Z,99130.06
2023-04-09T23:12:03.360Z,99137.09
2023-04-09T23:14:31.385Z,99133.31
2023-04-09T23:16:59.446Z,99150.88
2023-04-09T23:19:27.445Z,99145.03
2023-04-09T23:21:55.499Z,99149.19
2023-04-09T23:24:23.631Z,99154.00
2023-04-09T23:26:51.704Z,99154.69
2023-04-09T23:29:21.482Z,99158.06
2023-04-09T23:31:49.574Z,99151.38
2023-04-09T23:34:17.681Z,99153.16
2023-04-09T23:36:45.947Z,99155.31
2023-04-09T23:39:13.985Z,99156.47
2023-04-09T23:41:44.426Z,99153.47
2023-04-09T23:44:12.516Z,99155.56
2023-04-09T23:46:41.888Z,99146.69
2023-04-09T23:49:09.852Z,99138.88
2023-04-09T23:51:37.919Z,99140.03
2023-04-09T23:54:05.987Z,99146.44
2023-04-09T23:56:34.011Z,99147.13
2023-04-09T23:59:02.123Z,99139.84
